createdAt,value
2022-11-20T00:01:27.685Z,3.38
2022-11-20T00:03:56.794Z,2.63
2022-11-20T00:06:24.594Z,3.80
2022-11-20T00:08:52.160Z,4.43
2022-11-20T00:11:24.669Z,6.65
2022-11-20T00:13:54.740Z,4.60
2022-11-20T00:16:27.846Z,4.88
2022-11-20T00:18:55.462Z,3.67
2022-11-20T00:21:28.198Z,2.95
2022-11-20T00:23:56.885Z,4.25
2022-11-20T00:26:26.401Z,4.47
2022-11-20T00:29:02.765Z,2.85
2022-11-20T00:31:31.118Z,3.63
2022-11-20T00:33:58.754Z,2.30
2022-11-20T00:36:28.432Z,3.70
2022-11-20T00:38:58.011Z,4.38
2022-11-20T00:41:26.556Z,3.72
2022-11-20T00:43:55.428Z,4.13
2022-11-20T00:46:25.536Z,3.50
2022-11-20T00:48:52.602Z,3.05
2022-11-20T00:51:22.688Z,3.40
2022-11-20T00:53:50.481Z,2.88
2022-11-20T00:56:19.781Z,3.60
2022-11-20T00:58:49.280Z,3.33
2022-11-20T01:01:23.139Z,2.85
2022-11-20T01:03:51.882Z,3.80
2022-11-20T01:06:21.617Z,2.45
2022-11-20T01:08:49.693Z,3.60
2022-11-20T01:11:23.423Z,2.78
2022-11-20T01:13:53.035Z,3.78
2022-11-20T01:16:29.837Z,3.58
2022-11-20T01:19:00.903Z,3.85
2022-11-20T01:21:35.216Z,2.60
2022-11-20T01:24:03.356Z,2.88
2022-11-20T01:26:34.632Z,3.00
2022-11-20T01:29:02.288Z,5.95
2022-11-20T01:31:37.360Z,4.95
2022-11-20T01:34:12.037Z,3.25
2022-11-20T01:36:40.043Z,4.25
2022-11-20T01:39:20.496Z,2.95
2022-11-20T01:42:11.110Z,4.50
2022-11-20T01:44:59.568Z,3.30
2022-11-20T01:47:39.589Z,3.70
2022-11-20T01:50:23.431Z,4.38
2022-11-20T01:52:55.619Z,3.60
2022-11-20T01:55:38.551Z,3.85
2022-11-20T02:00:33.052Z,8.02
2022-11-20T02:03:08.032Z,7.95
2022-11-20T02:05:47.695Z,4.25
2022-11-20T02:08:15.110Z,5.57
2022-11-20T02:10:41.884Z,4.78
2022-11-20T02:13:28.393Z,4.28
2022-11-20T02:15:55.682Z,4.70
2022-11-20T02:18:23.277Z,3.55
2022-11-20T02:20:58.355Z,2.50
2022-11-20T02:23:35.623Z,3.55
2022-11-20T02:26:07.835Z,3.13
2022-11-20T02:28:34.836Z,2.80
2022-11-20T02:31:02.260Z,3.33
2022-11-20T02:33:28.989Z,2.33
2022-11-20T02:35:55.767Z,2.10
2022-11-20T02:38:22.749Z,1.83
2022-11-20T02:40:55.103Z,2.70
2022-11-20T02:43:22.409Z,2.00
2022-11-20T02:45:49.133Z,2.97
2022-11-20T02:48:15.963Z,2.67
2022-11-20T02:50:42.801Z,2.55
2022-11-20T02:53:09.684Z,3.53
2022-11-20T02:55:37.276Z,2.53
2022-11-20T02:58:04.315Z,2.08
2022-11-20T03:00:32.995Z,2.92
2022-11-20T03:02:59.781Z,2.72
2022-11-20T03:05:26.518Z,3.03
2022-11-20T03:07:53.365Z,2.58
2022-11-20T03:10:20.147Z,2.30
2022-11-20T03:12:46.854Z,2.13
2022-11-20T03:15:13.611Z,2.30
2022-11-20T03:17:40.341Z,2.65
2022-11-20T03:20:08.512Z,2.88
2022-11-20T03:22:35.208Z,2.55
2022-11-20T03:25:01.931Z,2.80
2022-11-20T03:27:33.293Z,2.95
2022-11-20T03:30:00.006Z,3.08
2022-11-20T03:32:26.741Z,3.30
2022-11-20T03:34:53.501Z,2.72
2022-11-20T03:37:20.502Z,2.33
2022-11-20T03:39:47.223Z,2.50
2022-11-20T03:42:32.744Z,2.53
2022-11-20T03:44:59.446Z,2.50
2022-11-20T03:47:26.493Z,2.38
2022-11-20T03:49:53.216Z,3.55
2022-11-20T03:52:20.052Z,2.72
2022-11-20T03:54:46.777Z,2.20
2022-11-20T03:57:13.503Z,2.95
2022-11-20T03:59:40.291Z,2.97
2022-11-20T04:02:07.195Z,2.65
2022-11-20T04:04:34.001Z,2.15
2022-11-20T04:07:00.777Z,2.42
2022-11-20T04:09:27.621Z,2.72
2022-11-20T04:11:54.360Z,2.15
2022-11-20T04:14:21.133Z,2.40
2022-11-20T04:16:47.964Z,2.28
2022-11-20T04:19:17.042Z,2.22
2022-11-20T04:21:45.205Z,3.00
2022-11-20T04:24:12.411Z,1.60
2022-11-20T04:26:40.120Z,2.03
2022-11-20T04:29:07.089Z,2.78
2022-11-20T04:31:35.640Z,2.50
2022-11-20T04:34:05.519Z,3.15
2022-11-20T04:36:32.880Z,2.42
2022-11-20T04:39:04.023Z,1.80
2022-11-20T04:41:34.272Z,1.98
2022-11-20T04:44:05.837Z,2.28
2022-11-20T04:46:39.708Z,2.05
2022-11-20T04:49:07.471Z,2.50
2022-11-20T04:51:35.054Z,3.45
2022-11-20T04:54:01.956Z,2.10
2022-11-20T04:56:28.726Z,2.55
2022-11-20T04:58:55.538Z,2.15
2022-11-20T05:01:25.333Z,2.70
2022-11-20T05:03:52.771Z,2.22
2022-11-20T05:06:23.392Z,2.28
2022-11-20T05:08:50.643Z,2.35
2022-11-20T05:11:21.243Z,2.10
2022-11-20T05:13:48.845Z,2.70
2022-11-20T05:16:24.854Z,2.55
2022-11-20T05:18:53.905Z,4.05
2022-11-20T05:21:21.707Z,3.40
2022-11-20T05:23:48.518Z,2.38
2022-11-20T05:26:22.492Z,2.95
2022-11-20T05:28:50.740Z,2.60
2022-11-20T05:31:26.730Z,2.72
2022-11-20T05:33:56.164Z,4.88
2022-11-20T05:36:22.922Z,3.80
2022-11-20T05:38:51.171Z,3.85
2022-11-20T05:41:20.816Z,4.95
2022-11-20T05:43:49.234Z,6.20
2022-11-20T05:46:28.301Z,4.60
2022-11-20T05:48:57.783Z,3.30
2022-11-20T05:51:25.309Z,4.30
2022-11-20T05:53:52.021Z,3.38
2022-11-20T05:56:21.452Z,2.78
2022-11-20T05:58:49.390Z,3.22
2022-11-20T06:01:23.533Z,3.15
2022-11-20T06:03:51.948Z,3.20
2022-11-20T06:06:20.635Z,3.47
2022-11-20T06:08:47.936Z,3.08
2022-11-20T06:11:16.604Z,2.78
2022-11-20T06:13:45.340Z,3.70
2022-11-20T06:16:14.924Z,3.25
2022-11-20T06:18:41.759Z,2.75
2022-11-20T06:21:12.412Z,3.70
2022-11-20T06:23:39.547Z,7.03
2022-11-20T06:26:12.247Z,6.82
2022-11-20T06:28:39.447Z,7.38
2022-11-20T06:31:07.978Z,10.63
2022-11-20T06:33:34.775Z,8.98
2022-11-20T06:36:05.879Z,8.05
2022-11-20T06:38:40.223Z,7.80
2022-11-20T06:41:12.629Z,6.85
2022-11-20T06:43:39.547Z,4.43
2022-11-20T06:46:06.623Z,5.93
2022-11-20T06:48:34.088Z,11.88
2022-11-20T06:51:02.053Z,11.82
2022-11-20T06:53:28.749Z,10.55
2022-11-20T06:55:57.843Z,7.88
2022-11-20T06:58:27.668Z,8.85
2022-11-20T07:00:54.734Z,8.30
2022-11-20T07:03:21.473Z,7.75
2022-11-20T07:05:48.264Z,8.88
2022-11-20T07:08:15.017Z,7.68
2022-11-20T07:10:41.751Z,8.70
2022-11-20T07:13:08.457Z,7.43
2022-11-20T07:15:35.236Z,6.20
2022-11-20T07:18:02.712Z,3.72
2022-11-20T07:20:29.608Z,5.55
2022-11-20T07:22:58.675Z,24.25
2022-11-20T07:25:27.131Z,7.15
2022-11-20T07:27:57.552Z,7.40
2022-11-20T07:30:24.263Z,2.90
2022-11-20T07:32:55.446Z,2.92
2022-11-20T07:35:23.865Z,6.63
2022-11-20T07:37:50.673Z,4.40
2022-11-20T07:40:18.715Z,5.60
2022-11-20T07:42:53.312Z,5.90
2022-11-20T07:45:21.865Z,7.03
2022-11-20T07:47:49.153Z,6.30
2022-11-20T07:50:16.394Z,4.40
2022-11-20T07:52:43.265Z,4.50
2022-11-20T07:55:10.876Z,9.68
2022-11-20T07:57:37.731Z,6.07
2022-11-20T08:00:10.275Z,6.55
2022-11-20T08:02:42.703Z,5.45
2022-11-20T08:05:11.240Z,4.75
2022-11-20T08:07:43.034Z,5.53
2022-11-20T08:10:14.702Z,2.58
2022-11-20T08:13:11.292Z,6.57
2022-11-20T08:15:40.206Z,9.20
2022-11-20T08:18:30.467Z,7.90
2022-11-20T08:20:57.751Z,4.90
2022-11-20T08:23:24.819Z,4.65
2022-11-20T08:25:52.336Z,17.17
2022-11-20T08:28:21.752Z,12.75
2022-11-20T08:30:51.150Z,7.38
2022-11-20T08:33:19.157Z,5.90
2022-11-20T08:35:46.199Z,5.15
2022-11-20T08:38:12.921Z,4.18
2022-11-20T08:40:39.696Z,7.22
2022-11-20T08:43:06.439Z,4.13
2022-11-20T08:45:35.015Z,8.77
2022-11-20T08:48:04.163Z,8.52
2022-11-20T08:50:33.496Z,6.47
2022-11-20T08:53:07.383Z,8.30
2022-11-20T08:55:36.627Z,5.28
2022-11-20T08:58:07.865Z,23.52
2022-11-20T09:00:35.472Z,16.35
2022-11-20T09:03:02.695Z,4.88
2022-11-20T09:05:29.859Z,4.22
2022-11-20T09:08:00.409Z,7.07
2022-11-20T09:10:28.556Z,5.43
2022-11-20T09:12:56.644Z,6.43
2022-11-20T09:15:24.629Z,4.40
2022-11-20T09:18:07.541Z,3.97
2022-11-20T09:20:34.351Z,5.25
2022-11-20T09:23:01.064Z,4.57
2022-11-20T09:25:28.012Z,6.18
2022-11-20T09:27:58.909Z,4.53
2022-11-20T09:30:26.362Z,3.40
2022-11-20T09:32:53.163Z,4.13
2022-11-20T09:35:20.083Z,2.50
2022-11-20T09:37:47.116Z,2.38
2022-11-20T09:40:30.588Z,2.75
2022-11-20T09:43:43.493Z,2.33
2022-11-20T09:46:38.667Z,2.17
2022-11-20T09:49:34.795Z,2.58
2022-11-20T09:52:23.837Z,1.95
2022-11-20T09:54:52.114Z,1.20
2022-11-20T09:57:26.710Z,2.60
2022-11-20T10:00:01.060Z,3.03
2022-11-20T10:02:58.985Z,4.97
2022-11-20T10:05:36.996Z,20.73
2022-11-20T10:08:41.693Z,5.72
2022-11-20T10:11:45.730Z,3.30
2022-11-20T10:14:36.888Z,10.27
2022-11-20T10:17:22.974Z,4.22
2022-11-20T10:20:17.557Z,1.40
2022-11-20T10:23:11.327Z,4.25
2022-11-20T10:26:18.705Z,4.68
2022-11-20T10:29:12.838Z,4.05
2022-11-20T10:31:43.658Z,7.65
2022-11-20T10:34:34.247Z,4.05
2022-11-20T10:37:16.046Z,10.20
2022-11-20T10:39:54.293Z,8.40
2022-11-20T10:42:46.275Z,8.75
2022-11-20T10:45:25.557Z,5.95
2022-11-20T10:48:14.341Z,3.38
2022-11-20T10:51:01.208Z,2.33
2022-11-20T10:53:55.690Z,3.83
2022-11-20T10:56:32.649Z,4.22
2022-11-20T10:59:26.303Z,2.72
2022-11-20T11:01:53.145Z,1.50
2022-11-20T11:04:33.785Z,0.50
2022-11-20T11:07:28.000Z,1.42
2022-11-20T11:09:57.539Z,2.33
2022-11-20T11:12:29.925Z,0.77
2022-11-20T11:14:58.722Z,0.70
2022-11-20T11:17:28.646Z,0.40
2022-11-20T11:20:12.725Z,0.30
2022-11-20T11:22:56.224Z,6.38
2022-11-20T11:25:43.293Z,1.98
2022-11-20T11:28:23.508Z,1.58
2022-11-20T11:30:50.403Z,0.90
2022-11-20T11:33:24.028Z,1.13
2022-11-20T11:35:53.789Z,0.70
2022-11-20T11:38:32.075Z,0.60
2022-11-20T11:40:59.136Z,1.05
2022-11-20T11:43:49.213Z,0.70
2022-11-20T11:46:21.561Z,0.57
2022-11-20T11:49:06.340Z,0.75
2022-11-20T11:52:15.079Z,0.40
2022-11-20T11:55:11.915Z,0.57
2022-11-20T11:57:55.853Z,1.83
2022-11-20T12:00:23.988Z,0.60
2022-11-20T12:03:23.048Z,0.63
2022-11-20T12:05:59.162Z,0.80
2022-11-20T12:08:43.984Z,0.60
2022-11-20T12:11:25.505Z,0.55
2022-11-20T12:13:59.419Z,0.70
2022-11-20T12:16:26.153Z,0.70
2022-11-20T12:18:54.154Z,0.30
2022-11-20T12:21:23.904Z,0.50
2022-11-20T12:24:27.694Z,0.68
2022-11-20T12:27:15.613Z,0.55
2022-11-20T12:29:51.420Z,0.75
2022-11-20T12:32:43.394Z,0.47
2022-11-20T12:35:31.203Z,0.75
2022-11-20T12:38:07.381Z,0.60
2022-11-20T12:40:54.516Z,0.70
2022-11-20T12:43:50.669Z,0.85
2022-11-20T12:47:13.597Z,0.60
2022-11-20T12:50:04.196Z,0.52
2022-11-20T12:52:48.560Z,1.40
2022-11-20T12:55:32.682Z,0.68
2022-11-20T12:58:17.115Z,0.90
2022-11-20T13:01:43.596Z,1.88
2022-11-20T13:04:37.276Z,0.85
2022-11-20T13:07:11.552Z,1.20
2022-11-20T13:09:45.421Z,0.60
2022-11-20T13:12:20.351Z,0.52
2022-11-20T13:14:53.841Z,0.77
2022-11-20T13:17:44.108Z,0.90
2022-11-20T13:20:18.599Z,1.05
2022-11-20T13:22:55.739Z,0.55
2022-11-20T13:25:28.206Z,0.30
2022-11-20T13:27:57.916Z,0.43
2022-11-20T13:30:27.282Z,0.50
2022-11-20T13:32:58.712Z,2.15
2022-11-20T13:35:38.440Z,0.80
2022-11-20T13:38:11.395Z,1.10
2022-11-20T13:43:49.223Z,2.78
2022-11-20T13:46:16.289Z,2.17
2022-11-20T13:48:46.462Z,2.30
2022-11-20T13:51:45.533Z,2.25
2022-11-20T13:54:53.469Z,4.80
2022-11-20T13:57:33.732Z,7.53
2022-11-20T14:00:14.002Z,1.40
2022-11-20T14:02:42.284Z,18.85
2022-11-20T14:05:23.536Z,7.40
2022-11-20T14:07:52.773Z,9.57
2022-11-20T14:10:32.316Z,5.80
2022-11-20T14:12:59.980Z,3.17
2022-11-20T14:15:33.695Z,5.22
2022-11-20T14:18:01.393Z,2.20
2022-11-20T14:20:32.269Z,3.33
2022-11-20T14:22:59.099Z,7.20
2022-11-20T14:25:32.081Z,4.82
2022-11-20T14:30:31.416Z,0.63
2022-11-20T14:33:03.675Z,1.23
2022-11-20T14:35:35.818Z,1.85
2022-11-20T14:38:04.414Z,3.27
2022-11-20T14:40:36.122Z,2.40
2022-11-20T14:43:19.424Z,7.03
2022-11-20T14:48:24.057Z,1.58
2022-11-20T14:50:50.751Z,5.53
2022-11-20T14:53:25.413Z,18.10
2022-11-20T14:56:01.814Z,14.20
2022-11-20T14:58:34.513Z,24.55
2022-11-20T15:01:13.180Z,12.98
2022-11-20T15:03:42.045Z,10.32
2022-11-20T15:06:13.207Z,9.00
2022-11-20T15:08:39.964Z,11.13
2022-11-20T15:11:19.811Z,11.60
2022-11-20T15:13:46.691Z,11.88
2022-11-20T15:16:24.065Z,6.63
2022-11-20T15:18:51.015Z,6.63
2022-11-20T15:21:20.435Z,5.55
2022-11-20T15:23:48.360Z,2.55
2022-11-20T15:26:26.845Z,2.72
2022-11-20T15:28:54.921Z,2.15
2022-11-20T15:31:24.402Z,2.60
2022-11-20T15:33:51.498Z,2.28
2022-11-20T15:36:18.323Z,7.40
2022-11-20T15:38:45.124Z,32.72
2022-11-20T15:41:12.446Z,23.00
2022-11-20T15:43:39.730Z,11.43
2022-11-20T15:46:12.084Z,20.98
2022-11-20T15:48:48.348Z,21.92
2022-11-20T15:51:40.096Z,23.38
2022-11-20T15:54:15.976Z,21.75
2022-11-20T15:56:42.978Z,13.73
2022-11-20T15:59:09.759Z,9.15
2022-11-20T16:01:37.085Z,4.03
2022-11-20T16:04:03.969Z,2.75
2022-11-20T16:06:30.793Z,3.30
2022-11-20T16:08:57.530Z,6.07
2022-11-20T16:11:24.329Z,6.05
2022-11-20T16:14:09.734Z,6.07
2022-11-20T16:16:39.698Z,2.22
2022-11-20T16:19:06.472Z,2.00
2022-11-20T16:21:33.356Z,2.55
2022-11-20T16:24:02.793Z,2.00
2022-11-20T16:26:30.123Z,2.70
2022-11-20T16:28:56.952Z,2.95
2022-11-20T16:31:23.990Z,2.15
2022-11-20T16:33:56.175Z,3.38
2022-11-20T16:36:26.207Z,4.35
2022-11-20T16:39:00.995Z,4.18
2022-11-20T16:41:31.181Z,4.18
2022-11-20T16:44:01.376Z,5.65
2022-11-20T16:46:31.491Z,4.82
2022-11-20T16:49:00.977Z,6.93
2022-11-20T16:51:30.407Z,8.75
2022-11-20T16:53:57.525Z,5.93
2022-11-20T16:56:26.969Z,5.88
2022-11-20T16:58:57.287Z,4.97
2022-11-20T17:01:26.343Z,4.25
2022-11-20T17:04:01.144Z,5.32
2022-11-20T17:06:32.092Z,6.38
2022-11-20T17:08:59.596Z,3.38
2022-11-20T17:11:28.039Z,3.33
2022-11-20T17:14:00.714Z,3.78
2022-11-20T17:16:27.710Z,6.25
2022-11-20T17:19:02.842Z,5.00
2022-11-20T17:21:31.707Z,4.95
2022-11-20T17:24:03.313Z,4.20
2022-11-20T17:26:30.356Z,8.82
2022-11-20T17:29:06.779Z,12.27
2022-11-20T17:31:34.892Z,6.45
2022-11-20T17:34:02.335Z,5.80
2022-11-20T17:36:30.394Z,7.22
2022-11-20T17:38:57.466Z,5.93
2022-11-20T17:41:27.423Z,7.85
2022-11-20T17:43:57.042Z,7.40
2022-11-20T17:46:28.205Z,6.10
2022-11-20T17:48:56.497Z,6.97
2022-11-20T17:51:26.568Z,5.57
2022-11-20T17:54:00.772Z,3.08
2022-11-20T17:56:50.674Z,3.75
2022-11-20T17:59:18.788Z,9.15
2022-11-20T18:01:45.719Z,7.15
2022-11-20T18:04:13.221Z,11.60
2022-11-20T18:06:40.581Z,15.00
2022-11-20T18:09:07.864Z,8.18
2022-11-20T18:11:40.794Z,4.78
2022-11-20T18:17:04.379Z,3.03
2022-11-20T18:19:42.644Z,3.63
2022-11-20T18:22:19.741Z,2.70
2022-11-20T18:24:46.519Z,3.13
2022-11-20T18:27:18.615Z,2.60
2022-11-20T18:29:48.587Z,4.00
2022-11-20T18:32:15.370Z,8.27
2022-11-20T18:34:42.126Z,4.38
2022-11-20T18:37:09.951Z,4.45
2022-11-20T18:39:37.155Z,5.13
2022-11-20T18:42:22.992Z,4.57
2022-11-20T18:44:53.739Z,2.65
2022-11-20T18:47:34.162Z,3.50
2022-11-20T18:50:02.202Z,4.20
2022-11-20T18:52:40.993Z,9.35
2022-11-20T18:55:09.289Z,18.92
2022-11-20T18:57:36.190Z,28.85
2022-11-20T19:00:08.918Z,72.00
2022-11-20T19:02:41.648Z,12.15
2022-11-20T19:05:14.714Z,18.83
2022-11-20T19:07:42.879Z,8.13
2022-11-20T19:10:10.238Z,2.67
2022-11-20T19:12:37.980Z,22.77
2022-11-20T19:15:05.671Z,10.23
2022-11-20T19:17:33.837Z,28.42
2022-11-20T19:20:01.010Z,12.70
2022-11-20T19:22:27.747Z,3.55
2022-11-20T19:24:54.463Z,5.05
2022-11-20T19:27:21.418Z,2.42
2022-11-20T19:29:48.187Z,1.23
2022-11-20T19:32:15.059Z,3.47
2022-11-20T19:34:44.744Z,3.70
2022-11-20T19:37:11.448Z,1.27
2022-11-20T19:39:38.344Z,1.42
2022-11-20T19:42:05.267Z,2.72
2022-11-20T19:44:33.123Z,2.75
2022-11-20T19:47:00.777Z,3.08
2022-11-20T19:49:27.527Z,3.88
2022-11-20T19:51:54.284Z,14.45
2022-11-20T19:54:21.038Z,16.55
2022-11-20T19:56:49.557Z,16.60
2022-11-20T19:59:16.735Z,4.95
2022-11-20T20:01:43.850Z,2.72
2022-11-20T20:04:10.683Z,1.77
2022-11-20T20:06:41.776Z,2.03
2022-11-20T20:09:12.189Z,4.07
2022-11-20T20:11:39.962Z,1.83
2022-11-20T20:14:14.753Z,2.20
2022-11-20T20:16:42.300Z,0.88
2022-11-20T20:19:13.900Z,1.63
2022-11-20T20:21:41.545Z,3.13
2022-11-20T20:24:09.162Z,2.63
2022-11-20T20:26:35.963Z,2.63
2022-11-20T20:29:03.551Z,1.50
2022-11-20T20:31:32.049Z,1.58
2022-11-20T20:33:59.009Z,2.00
2022-11-20T20:36:26.632Z,1.13
2022-11-20T20:38:59.818Z,1.90
2022-11-20T20:41:27.150Z,2.80
2022-11-20T20:44:13.290Z,1.60
2022-11-20T20:46:41.332Z,2.40
2022-11-20T20:49:08.815Z,1.63
2022-11-20T20:51:35.935Z,3.85
2022-11-20T20:54:02.861Z,3.35
2022-11-20T20:56:29.575Z,1.77
2022-11-20T20:58:56.403Z,0.90
2022-11-20T21:01:25.740Z,1.58
2022-11-20T21:03:52.525Z,1.50
2022-11-20T21:06:19.282Z,1.20
2022-11-20T21:08:46.072Z,0.90
2022-11-20T21:11:15.812Z,1.52
2022-11-20T21:13:44.543Z,1.67
2022-11-20T21:16:13.404Z,1.30
2022-11-20T21:18:40.132Z,1.45
2022-11-20T21:21:30.464Z,1.20
2022-11-20T21:23:57.401Z,0.77
2022-11-20T21:26:29.520Z,1.15
2022-11-20T21:28:57.778Z,0.80
2022-11-20T21:31:26.891Z,0.90
2022-11-20T21:33:56.588Z,1.40
2022-11-20T21:36:29.004Z,1.02
2022-11-20T21:38:57.601Z,1.08
2022-11-20T21:41:27.214Z,0.50
2022-11-20T21:44:29.176Z,0.77
2022-11-20T21:46:45.065Z,0.98
2022-11-20T21:49:12.800Z,0.57
2022-11-20T21:51:39.600Z,0.47
2022-11-20T21:54:06.329Z,0.57
2022-11-20T21:56:33.057Z,1.15
2022-11-20T21:58:59.804Z,0.80
2022-11-20T22:01:29.733Z,1.25
2022-11-20T22:03:59.821Z,1.23
2022-11-20T22:06:32.742Z,0.40
2022-11-20T22:11:27.157Z,0.35
2022-11-20T22:14:12.550Z,0.38
2022-11-20T22:16:39.270Z,0.50
2022-11-20T22:19:07.109Z,0.47
2022-11-20T22:21:34.588Z,0.43
2022-11-20T22:24:01.819Z,0.45
2022-11-20T22:26:39.918Z,0.60
2022-11-20T22:29:08.351Z,0.30
2022-11-20T22:31:35.086Z,0.35
2022-11-20T22:34:02.928Z,0.70
2022-11-20T22:36:32.022Z,0.40
2022-11-20T22:38:59.220Z,0.50
2022-11-20T22:41:28.494Z,0.50
2022-11-20T22:43:57.696Z,0.30
2022-11-20T22:46:26.412Z,0.30
2022-11-20T22:48:58.955Z,0.35
2022-11-20T22:51:28.849Z,0.50
2022-11-20T22:53:55.700Z,0.30
2022-11-20T22:56:22.859Z,0.30
2022-11-20T22:58:52.091Z,0.50
2022-11-20T23:01:27.098Z,0.38
2022-11-20T23:04:00.586Z,0.40
2022-11-20T23:06:27.976Z,0.30
2022-11-20T23:08:55.479Z,0.85
2022-11-20T23:11:28.721Z,0.40
2022-11-20T23:14:01.917Z,0.40
2022-11-20T23:16:30.388Z,0.50
2022-11-20T23:19:08.679Z,0.50
2022-11-20T23:21:37.533Z,0.45
2022-11-20T23:24:05.547Z,0.60
2022-11-20T23:26:36.479Z,0.77
2022-11-20T23:29:04.979Z,0.85
2022-11-20T23:31:34.079Z,0.52
2022-11-20T23:34:01.224Z,1.40
2022-11-20T23:36:28.031Z,1.48
2022-11-20T23:38:54.739Z,2.90
2022-11-20T23:41:21.517Z,2.00
2022-11-20T23:43:48.292Z,2.08
2022-11-20T23:46:16.807Z,1.30
2022-11-20T23:48:45.343Z,2.17
2022-11-20T23:51:13.293Z,1.23
2022-11-20T23:53:40.366Z,0.60
2022-11-20T23:56:07.428Z,0.47
2022-11-20T23:58:38.225Z,0.52
